createdAt,value
2023-04-02T00:00:09.808Z,99428.63
2023-04-02T00:02:55.321Z,99432.16
2023-04-02T00:05:26.371Z,99424.50
2023-04-02T00:07:58.329Z,99430.59
2023-04-02T00:10:33.880Z,99432.31
2023-04-02T00:13:19.836Z,99422.09
2023-04-02T00:15:50.824Z,99426.53
2023-04-02T00:18:21.086Z,99427.16
2023-04-02T00:21:15.601Z,99433.31
2023-04-02T00:23:44.324Z,99428.09
2023-04-02T00:26:21.992Z,99427.25
2023-04-02T00:28:50.084Z,99426.31
2023-04-02T00:31:20.123Z,99428.13
2023-04-02T00:33:48.762Z,99425.56
2023-04-02T00:36:20.442Z,99429.09
2023-04-02T00:38:48.786Z,99434.22
2023-04-02T00:41:22.713Z,99437.03
2023-04-02T00:43:52.824Z,99438.78
2023-04-02T00:46:24.289Z,99430.06
2023-04-02T00:48:55.109Z,99422.41
2023-04-02T00:51:28.329Z,99429.31
2023-04-02T00:53:58.551Z,99432.81
2023-04-02T00:56:43.153Z,99430.22
2023-04-02T00:59:35.901Z,99433.72
2023-04-02T01:02:18.806Z,99424.25
2023-04-02T01:05:02.871Z,99422.53
2023-04-02T01:07:41.524Z,99427.75
2023-04-02T01:10:14.820Z,99432.13
2023-04-02T01:12:50.762Z,99425.19
2023-04-02T01:15:44.756Z,99415.72
2023-04-02T01:18:37.006Z,99420.06
2023-04-02T01:21:16.223Z,99428.72
2023-04-02T01:24:04.430Z,99423.56
2023-04-02T01:26:58.284Z,99416.66
2023-04-02T01:29:33.250Z,99420.97
2023-04-02T01:32:10.296Z,99428.75
2023-04-02T01:34:38.092Z,99434.84
2023-04-02T01:37:36.821Z,99435.75
2023-04-02T01:40:26.570Z,99432.31
2023-04-02T01:43:24.708Z,99440.06
2023-04-02T01:45:51.655Z,99435.78
2023-04-02T01:48:24.712Z,99441.84
2023-04-02T01:50:55.684Z,99434.91
2023-04-02T01:53:25.732Z,99435.72
2023-04-02T01:55:55.913Z,99431.47
2023-04-02T01:58:25.717Z,99423.56
2023-04-02T02:00:58.192Z,99433.97
2023-04-02T02:03:25.103Z,99432.22
2023-04-02T02:05:52.636Z,99420.13
2023-04-02T02:08:45.144Z,99418.41
2023-04-02T02:11:16.902Z,99408.06
2023-04-02T02:13:59.916Z,99416.72
2023-04-02T02:16:29.091Z,99412.41
2023-04-02T02:19:00.883Z,99417.66
2023-04-02T02:21:33.743Z,99411.63
2023-04-02T02:24:02.186Z,99404.72
2023-04-02T02:26:34.128Z,99411.63
2023-04-02T02:29:03.640Z,99404.69
2023-04-02T02:31:34.754Z,99403.84
2023-04-02T02:34:09.151Z,99402.09
2023-04-02T02:36:50.935Z,99400.34
2023-04-02T02:39:30.714Z,99399.50
2023-04-02T02:42:01.316Z,99402.09
2023-04-02T02:44:33.562Z,99402.09
2023-04-02T02:47:26.063Z,99403.81
2023-04-02T02:49:57.807Z,99412.50
2023-04-02T02:52:32.360Z,99409.00
2023-04-02T02:55:04.604Z,99409.00
2023-04-02T02:57:43.905Z,99412.50
2023-04-02T03:00:12.101Z,99418.53
2023-04-02T03:02:42.552Z,99409.00
2023-04-02T03:05:21.351Z,99409.88
2023-04-02T03:07:52.259Z,99411.59
2023-04-02T03:10:44.259Z,99415.97
2023-04-02T03:13:33.036Z,99418.56
2023-04-02T03:16:16.832Z,99411.63
2023-04-02T03:19:00.406Z,99420.28
2023-04-02T03:21:53.311Z,99423.78
2023-04-02T03:24:29.989Z,99420.28
2023-04-02T03:27:09.524Z,99433.28
2023-04-02T03:29:46.577Z,99442.81
2023-04-02T03:32:21.304Z,99427.22
2023-04-02T03:34:57.316Z,99420.28
2023-04-02T03:37:44.558Z,99426.38
2023-04-02T03:40:28.533Z,99434.16
2023-04-02T03:43:03.234Z,99428.06
2023-04-02T03:45:36.775Z,99434.13
2023-04-02T03:48:12.857Z,99442.81
2023-04-02T03:50:50.913Z,99442.81
2023-04-02T03:53:17.880Z,99444.56
2023-04-02T03:55:44.913Z,99448.03
2023-04-02T03:58:21.513Z,99447.13
2023-04-02T04:01:03.342Z,99454.94
2023-04-02T04:03:41.939Z,99449.72
2023-04-02T04:06:21.370Z,99461.00
2023-04-02T04:08:55.207Z,99459.22
2023-04-02T04:11:35.145Z,99467.97
2023-04-02T04:14:10.311Z,99469.69
2023-04-02T04:16:49.954Z,99472.28
2023-04-02T04:19:21.909Z,99467.06
2023-04-02T04:21:48.900Z,99476.63
2023-04-02T04:24:24.388Z,99478.34
2023-04-02T04:26:54.342Z,99476.63
2023-04-02T04:29:47.012Z,99480.09
2023-04-02T04:32:32.274Z,99480.94
2023-04-02T04:35:16.155Z,99485.28
2023-04-02T04:37:49.610Z,99493.97
2023-04-02T04:40:30.665Z,99490.47
2023-04-02T04:43:03.102Z,99497.44
2023-04-02T04:45:48.184Z,99492.22
2023-04-02T04:48:24.007Z,99494.81
2023-04-02T04:50:59.953Z,99494.84
2023-04-02T04:53:28.920Z,99500.91
2023-04-02T04:56:06.085Z,99493.09
2023-04-02T04:59:11.143Z,99489.63
2023-04-02T05:01:43.659Z,99494.81
2023-04-02T05:04:33.751Z,99497.41
2023-04-02T05:07:07.486Z,99500.00
2023-04-02T05:09:34.133Z,99497.41
2023-04-02T05:12:25.620Z,99500.00
2023-04-02T05:15:11.250Z,99500.84
2023-04-02T05:18:05.639Z,99502.59
2023-04-02T05:20:44.918Z,99507.81
2023-04-02T05:23:37.866Z,99513.88
2023-04-02T05:26:11.636Z,99514.72
2023-04-02T05:28:51.167Z,99508.66
2023-04-02T05:31:42.509Z,99516.47
2023-04-02T05:34:12.585Z,99527.75
2023-04-02T05:36:40.511Z,99523.44
2023-04-02T05:39:11.551Z,99514.75
2023-04-02T05:41:43.362Z,99531.25
2023-04-02T05:44:22.171Z,99526.03
2023-04-02T05:46:51.825Z,99520.84
2023-04-02T05:49:40.728Z,99527.78
2023-04-02T05:52:15.567Z,99526.03
2023-04-02T05:54:55.286Z,99534.69
2023-04-02T05:57:43.173Z,99519.94
2023-04-02T06:00:54.679Z,99532.09
2023-04-02T06:03:29.728Z,99526.88
2023-04-02T06:06:03.965Z,99531.25
2023-04-02T06:08:38.353Z,99521.69
2023-04-02T06:11:24.309Z,99541.63
2023-04-02T06:13:51.432Z,99545.09
2023-04-02T06:16:21.756Z,99540.78
2023-04-02T06:18:49.742Z,99545.97
2023-04-02T06:21:18.170Z,99548.56
2023-04-02T06:23:58.250Z,99546.81
2023-04-02T06:26:31.599Z,99559.88
2023-04-02T06:29:14.137Z,99560.72
2023-04-02T06:32:02.222Z,99555.50
2023-04-02T06:34:31.358Z,99570.28
2023-04-02T06:37:03.491Z,99562.47
2023-04-02T06:39:30.890Z,99564.19
2023-04-02T06:42:11.358Z,99567.66
2023-04-02T06:44:39.079Z,99569.38
2023-04-02T06:47:06.251Z,99565.88
2023-04-02T06:49:44.008Z,99572.84
2023-04-02T06:52:36.638Z,99575.41
2023-04-02T06:55:51.155Z,99572.00
2023-04-02T06:58:19.624Z,99574.56
2023-04-02T07:00:49.038Z,99580.66
2023-04-02T07:03:17.757Z,99572.84
2023-04-02T07:05:47.467Z,99579.75
2023-04-02T07:08:14.311Z,99580.63
2023-04-02T07:10:41.434Z,99587.53
2023-04-02T07:13:18.300Z,99577.13
2023-04-02T07:15:54.177Z,99582.28
2023-04-02T07:18:23.157Z,99593.56
2023-04-02T07:20:52.115Z,99590.97
2023-04-02T07:23:21.386Z,99593.56
2023-04-02T07:25:53.428Z,99589.22
2023-04-02T07:28:22.663Z,99595.31
2023-04-02T07:30:51.217Z,99599.66
2023-04-02T07:33:20.865Z,99600.53
2023-04-02T07:35:48.375Z,99608.28
2023-04-02T07:38:16.644Z,99602.16
2023-04-02T07:40:44.659Z,99612.47
2023-04-02T07:43:12.394Z,99619.56
2023-04-02T07:45:40.111Z,99617.72
2023-04-02T07:48:12.731Z,99627.31
2023-04-02T07:50:40.757Z,99623.88
2023-04-02T07:53:09.088Z,99623.00
2023-04-02T07:55:37.193Z,99621.22
2023-04-02T07:58:04.307Z,99616.06
2023-04-02T08:00:32.400Z,99622.91
2023-04-02T08:03:00.698Z,99618.50
2023-04-02T08:05:27.919Z,99622.00
2023-04-02T08:07:57.013Z,99616.75
2023-04-02T08:10:25.100Z,99618.44
2023-04-02T08:12:52.717Z,99620.94
2023-04-02T08:15:20.310Z,99625.09
2023-04-02T08:17:48.110Z,99636.09
2023-04-02T08:20:21.523Z,99632.22
2023-04-02T08:22:49.652Z,99640.66
2023-04-02T08:25:17.019Z,99628.63
2023-04-02T08:27:48.034Z,99639.94
2023-04-02T08:30:15.343Z,99639.25
2023-04-02T08:32:43.501Z,99643.88
2023-04-02T08:35:13.565Z,99641.38
2023-04-02T08:37:42.021Z,99643.25
2023-04-02T08:40:23.604Z,99647.47
2023-04-02T08:43:15.432Z,99644.63
2023-04-02T08:45:53.584Z,99655.97
2023-04-02T08:48:21.858Z,99658.31
2023-04-02T08:50:50.895Z,99652.94
2023-04-02T08:53:24.995Z,99652.09
2023-04-02T08:55:52.675Z,99655.53
2023-04-02T08:58:26.798Z,99659.72
2023-04-02T09:00:58.008Z,99652.09
2023-04-02T09:03:45.700Z,99653.69
2023-04-02T09:06:19.860Z,99648.50
2023-04-02T09:08:51.476Z,99661.28
2023-04-02T09:11:32.986Z,99653.63
2023-04-02T09:14:06.308Z,99653.31
2023-04-02T09:16:49.058Z,99653.19
2023-04-02T09:19:20.535Z,99653.25
2023-04-02T09:22:00.191Z,99652.97
2023-04-02T09:24:26.970Z,99646.66
2023-04-02T09:26:53.859Z,99645.16
2023-04-02T09:29:38.018Z,99646.81
2023-04-02T09:32:19.483Z,99652.22
2023-04-02T09:34:46.537Z,99657.38
2023-04-02T09:37:25.557Z,99647.66
2023-04-02T09:39:54.616Z,99665.09
2023-04-02T09:42:38.252Z,99651.13
2023-04-02T09:45:34.997Z,99656.69
2023-04-02T09:48:33.025Z,99649.69
2023-04-02T09:51:07.428Z,99647.47
2023-04-02T09:53:36.992Z,99645.75
2023-04-02T09:56:24.693Z,99639.69
2023-04-02T09:59:13.103Z,99645.38
2023-04-02T10:01:57.679Z,99650.03
2023-04-02T10:04:48.647Z,99653.63
2023-04-02T10:07:38.299Z,99653.63
2023-04-02T10:10:22.699Z,99653.31
2023-04-02T10:13:00.182Z,99647.13
2023-04-02T10:15:44.379Z,99656.53
2023-04-02T10:18:23.328Z,99638.63
2023-04-02T10:20:54.653Z,99637.63
2023-04-02T10:23:26.907Z,99645.34
2023-04-02T10:25:59.495Z,99644.72
2023-04-02T10:28:40.828Z,99652.25
2023-04-02T10:31:18.627Z,99646.59
2023-04-02T10:33:51.447Z,99650.06
2023-04-02T10:36:50.782Z,99648.97
2023-04-02T10:39:31.508Z,99652.28
2023-04-02T10:42:23.077Z,99659.09
2023-04-02T10:44:52.653Z,99653.63
2023-04-02T10:47:58.707Z,99664.88
2023-04-02T10:50:37.437Z,99671.00
2023-04-02T10:53:19.595Z,99670.28
2023-04-02T10:55:55.028Z,99661.06
2023-04-02T10:58:26.431Z,99667.13
2023-04-02T11:00:59.760Z,99661.97
2023-04-02T11:03:37.313Z,99664.63
2023-04-02T11:06:23.339Z,99660.06
2023-04-02T11:08:55.720Z,99661.31
2023-04-02T11:11:28.005Z,99660.25
2023-04-02T11:14:00.680Z,99667.59
2023-04-02T11:16:28.467Z,99662.44
2023-04-02T11:19:27.117Z,99663.56
2023-04-02T11:22:01.976Z,99651.13
2023-04-02T11:24:30.592Z,99647.72
2023-04-02T11:27:12.561Z,99637.28
2023-04-02T11:29:47.248Z,99640.50
2023-04-02T11:32:27.722Z,99644.53
2023-04-02T11:35:05.705Z,99637.50
2023-04-02T11:37:46.217Z,99631.50
2023-04-02T11:40:14.130Z,99635.56
2023-04-02T11:42:44.870Z,99625.25
2023-04-02T11:45:23.702Z,99631.41
2023-04-02T11:47:59.634Z,99626.06
2023-04-02T11:50:45.945Z,99624.09
2023-04-02T11:53:13.238Z,99625.50
2023-04-02T11:55:41.966Z,99620.53
2023-04-02T11:58:46.167Z,99618.13
2023-04-02T12:01:54.613Z,99613.69
2023-04-02T12:04:54.615Z,99612.63
2023-04-02T12:08:16.391Z,99622.19
2023-04-02T12:10:53.063Z,99624.44
2023-04-02T12:13:41.884Z,99635.69
2023-04-02T12:16:12.284Z,99631.16
2023-04-02T12:18:56.042Z,99626.72
2023-04-02T12:21:27.218Z,99621.56
2023-04-02T12:23:59.649Z,99618.50
2023-04-02T12:26:37.920Z,99621.59
2023-04-02T12:29:28.315Z,99615.72
2023-04-02T12:31:58.567Z,99613.25
2023-04-02T12:34:29.452Z,99617.13
2023-04-02T12:37:05.115Z,99608.63
2023-04-02T12:39:34.533Z,99616.38
2023-04-02T12:42:02.668Z,99603.41
2023-04-02T12:44:31.339Z,99588.81
2023-04-02T12:46:59.496Z,99587.97
2023-04-02T12:49:33.263Z,99597.09
2023-04-02T12:52:21.812Z,99599.00
2023-04-02T12:55:00.959Z,99599.81
2023-04-02T12:57:31.261Z,99587.06
2023-04-02T13:00:25.043Z,99595.41
2023-04-02T13:03:14.974Z,99597.59
2023-04-02T13:05:46.917Z,99585.09
2023-04-02T13:08:25.319Z,99586.53
2023-04-02T13:11:04.136Z,99586.28
2023-04-02T13:13:36.002Z,99579.13
2023-04-02T13:16:05.374Z,99580.09
2023-04-02T13:18:35.747Z,99580.97
2023-04-02T13:21:23.835Z,99584.81
2023-04-02T13:23:50.526Z,99583.56
2023-04-02T13:26:27.487Z,99584.78
2023-04-02T13:29:10.329Z,99578.50
2023-04-02T13:31:38.021Z,99580.72
2023-04-02T13:34:05.821Z,99579.53
2023-04-02T13:36:32.544Z,99558.41
2023-04-02T13:39:00.496Z,99560.56
2023-04-02T13:41:30.732Z,99559.06
2023-04-02T13:44:04.263Z,99571.84
2023-04-02T13:46:34.014Z,99569.13
2023-04-02T13:49:01.313Z,99568.69
2023-04-02T13:51:44.554Z,99569.22
2023-04-02T13:54:24.671Z,99579.59
2023-04-02T13:56:52.109Z,99575.16
2023-04-02T13:59:19.995Z,99581.75
2023-04-02T14:01:50.180Z,99575.56
2023-04-02T14:04:25.015Z,99571.66
2023-04-02T14:07:20.457Z,99580.63
2023-04-02T14:10:01.450Z,99571.84
2023-04-02T14:12:50.182Z,99589.06
2023-04-02T14:16:06.438Z,99589.03
2023-04-02T14:18:55.076Z,99586.66
2023-04-02T14:21:43.714Z,99573.28
2023-04-02T14:24:52.825Z,99577.78
2023-04-02T14:27:57.800Z,99574.28
2023-04-02T14:30:52.823Z,99589.91
2023-04-02T14:33:35.664Z,99595.34
2023-04-02T14:36:31.535Z,99599.25
2023-04-02T14:39:25.617Z,99596.19
2023-04-02T14:42:19.186Z,99604.72
2023-04-02T14:44:56.551Z,99601.84
2023-04-02T14:47:35.318Z,99609.63
2023-04-02T14:50:16.268Z,99606.56
2023-04-02T14:52:46.289Z,99607.41
2023-04-02T14:55:33.220Z,99627.84
2023-04-02T14:58:05.491Z,99614.63
2023-04-02T15:00:46.019Z,99620.53
2023-04-02T15:03:21.553Z,99624.03
2023-04-02T15:05:55.829Z,99626.91
2023-04-02T15:08:33.414Z,99619.94
2023-04-02T15:11:12.714Z,99629.41
2023-04-02T15:13:48.791Z,99627.22
2023-04-02T15:16:20.135Z,99624.53
2023-04-02T15:18:52.434Z,99612.91
2023-04-02T15:21:20.126Z,99619.66
2023-04-02T15:24:22.005Z,99622.91
2023-04-02T15:27:14.668Z,99635.72
2023-04-02T15:30:12.986Z,99634.56
2023-04-02T15:32:43.521Z,99630.72
2023-04-02T15:35:41.845Z,99636.41
2023-04-02T15:38:24.715Z,99631.03
2023-04-02T15:41:12.044Z,99644.34
2023-04-02T15:44:10.853Z,99644.81
2023-04-02T15:46:50.818Z,99640.66
2023-04-02T15:49:34.079Z,99646.47
2023-04-02T15:52:16.210Z,99644.06
2023-04-02T15:55:11.262Z,99655.88
2023-04-02T15:57:51.196Z,99657.28
2023-04-02T16:00:52.025Z,99657.34
2023-04-02T16:03:35.143Z,99655.00
2023-04-02T16:06:26.354Z,99657.72
2023-04-02T16:09:02.921Z,99660.22
2023-04-02T16:11:29.701Z,99659.97
2023-04-02T16:14:30.684Z,99678.03
2023-04-02T16:17:10.804Z,99669.28
2023-04-02T16:19:50.556Z,99676.91
2023-04-02T16:22:28.652Z,99677.72
2023-04-02T16:25:19.374Z,99675.22
2023-04-02T16:28:11.559Z,99680.88
2023-04-02T16:31:16.816Z,99681.03
2023-04-02T16:34:02.580Z,99691.28
2023-04-02T16:36:38.630Z,99688.75
2023-04-02T16:39:39.537Z,99693.50
2023-04-02T16:42:17.129Z,99700.38
2023-04-02T16:44:59.502Z,99706.97
2023-04-02T16:47:39.392Z,99709.78
2023-04-02T16:51:07.998Z,99715.63
2023-04-02T16:54:01.706Z,99707.59
2023-04-02T16:57:06.848Z,99720.25
2023-04-02T17:00:06.643Z,99721.25
2023-04-02T17:02:45.646Z,99716.59
2023-04-02T17:05:33.834Z,99729.00
2023-04-02T17:08:22.202Z,99727.47
2023-04-02T17:11:01.413Z,99734.44
2023-04-02T17:13:41.939Z,99730.97
2023-04-02T17:16:20.145Z,99736.09
2023-04-02T17:18:51.477Z,99747.56
2023-04-02T17:21:24.145Z,99746.53
2023-04-02T17:24:02.797Z,99749.25
2023-04-02T17:26:32.766Z,99748.03
2023-04-02T17:29:06.211Z,99755.69
2023-04-02T17:31:35.398Z,99750.84
2023-04-02T17:34:17.382Z,99755.91
2023-04-02T17:36:51.199Z,99749.31
2023-04-02T17:39:18.091Z,99754.97
2023-04-02T17:42:02.290Z,99760.81
2023-04-02T17:44:54.235Z,99768.09
2023-04-02T17:47:25.866Z,99771.81
2023-04-02T17:50:07.379Z,99768.88
2023-04-02T17:53:02.860Z,99782.22
2023-04-02T17:55:38.247Z,99784.06
2023-04-02T17:58:17.064Z,99785.91
2023-04-02T18:01:12.464Z,99797.13
2023-04-02T18:03:47.645Z,99800.75
2023-04-02T18:07:11.410Z,99811.81
2023-04-02T18:09:52.766Z,99818.13
2023-04-02T18:12:34.124Z,99821.41
2023-04-02T18:15:23.128Z,99826.34
2023-04-02T18:18:19.331Z,99828.09
2023-04-02T18:21:20.177Z,99837.41
2023-04-02T18:23:56.123Z,99845.28
2023-04-02T18:26:36.357Z,99843.50
2023-04-02T18:29:24.782Z,99839.31
2023-04-02T18:31:54.203Z,99847.19
2023-04-02T18:34:40.031Z,99854.66
2023-04-02T18:37:15.625Z,99854.03
2023-04-02T18:39:50.564Z,99858.63
2023-04-02T18:42:50.680Z,99860.13
2023-04-02T18:45:29.427Z,99864.84
2023-04-02T18:48:05.073Z,99859.38
2023-04-02T18:50:39.373Z,99859.19
2023-04-02T18:53:21.644Z,99863.81
2023-04-02T18:55:56.370Z,99861.00
2023-04-02T18:58:41.201Z,99854.66
2023-04-02T19:01:14.739Z,99858.94
2023-04-02T19:03:50.690Z,99858.88
2023-04-02T19:06:27.348Z,99869.09
2023-04-02T19:08:59.401Z,99870.19
2023-04-02T19:11:31.568Z,99873.53
2023-04-02T19:14:03.082Z,99876.06
2023-04-02T19:17:07.218Z,99881.41
2023-04-02T19:19:46.799Z,99880.03
2023-04-02T19:22:27.080Z,99890.34
2023-04-02T19:25:08.937Z,99885.19
2023-04-02T19:27:45.170Z,99888.97
2023-04-02T19:30:41.585Z,99890.00
2023-04-02T19:33:43.138Z,99886.19
2023-04-02T19:36:20.423Z,99885.06
2023-04-02T19:39:08.368Z,99895.22
2023-04-02T19:41:37.973Z,99891.13
2023-04-02T19:44:11.766Z,99892.41
2023-04-02T19:46:39.802Z,99888.97
2023-04-02T19:49:12.423Z,99900.59
2023-04-02T19:51:40.334Z,99899.59
2023-04-02T19:54:08.027Z,99909.13
2023-04-02T19:56:34.957Z,99907.59
2023-04-02T19:59:07.866Z,99917.47
2023-04-02T20:01:43.882Z,99919.94
2023-04-02T20:04:10.888Z,99924.31
2023-04-02T20:06:38.375Z,99920.59
2023-04-02T20:09:07.622Z,99924.84
2023-04-02T20:11:36.421Z,99929.09
2023-04-02T20:14:06.514Z,99934.56
2023-04-02T20:16:34.538Z,99937.31
2023-04-02T20:19:02.614Z,99938.06
2023-04-02T20:21:34.823Z,99944.25
2023-04-02T20:24:02.624Z,99946.78
2023-04-02T20:26:33.319Z,99937.34
2023-04-02T20:29:00.593Z,99950.38
2023-04-02T20:31:27.977Z,99952.09
2023-04-02T20:33:56.713Z,99954.94
2023-04-02T20:36:25.279Z,99960.13
2023-04-02T20:38:55.094Z,99950.56
2023-04-02T20:41:22.183Z,99950.53
2023-04-02T20:43:50.076Z,99953.19
2023-04-02T20:46:17.450Z,99957.50
2023-04-02T20:48:45.468Z,99954.03
2023-04-02T20:51:15.256Z,99956.69
2023-04-02T20:53:42.466Z,99960.16
2023-04-02T20:56:16.032Z,99961.06
2023-04-02T20:58:44.037Z,99961.06
2023-04-02T21:01:18.420Z,99962.81
2023-04-02T21:03:45.961Z,99964.53
2023-04-02T21:06:17.235Z,99969.75
2023-04-02T21:08:45.256Z,99961.91
2023-04-02T21:11:12.465Z,99971.47
2023-04-02T21:13:43.940Z,99971.47
2023-04-02T21:16:24.114Z,99979.28
2023-04-02T21:18:53.443Z,99979.31
2023-04-02T21:21:21.705Z,99988.88
2023-04-02T21:23:53.252Z,99986.25
2023-04-02T21:26:20.933Z,99988.00
2023-04-02T21:28:48.900Z,99989.72
2023-04-02T21:31:22.210Z,99994.09
2023-04-02T21:33:55.316Z,99990.59
2023-04-02T21:36:33.941Z,100000.13
2023-04-02T21:39:04.150Z,100001.03
2023-04-02T21:41:34.211Z,100007.13
2023-04-02T21:44:03.686Z,99995.84
2023-04-02T21:46:36.264Z,100013.97
2023-04-02T21:49:03.482Z,100009.34
2023-04-02T21:51:37.980Z,100014.53
2023-04-02T21:54:06.322Z,100018.97
2023-04-02T21:56:36.711Z,100026.69
2023-04-02T21:59:04.939Z,100022.44
2023-04-02T22:01:41.973Z,100023.09
2023-04-02T22:04:16.786Z,100021.47
2023-04-02T22:06:44.394Z,100030.69
2023-04-02T22:09:18.037Z,100023.97
2023-04-02T22:11:47.845Z,100037.91
2023-04-02T22:14:15.972Z,100039.53
2023-04-02T22:16:43.896Z,100033.56
2023-04-02T22:19:14.073Z,100037.63
2023-04-02T22:21:43.172Z,100044.41
2023-04-02T22:24:13.932Z,100036.28
2023-04-02T22:26:41.570Z,100042.31
2023-04-02T22:29:08.928Z,100046.00
2023-04-02T22:31:36.256Z,100058.81
2023-04-02T22:34:05.829Z,100051.97
2023-04-02T22:36:36.481Z,100053.00
2023-04-02T22:39:05.811Z,100057.78
2023-04-02T22:41:32.922Z,100056.94
2023-04-02T22:44:01.489Z,100063.34
2023-04-02T22:46:30.341Z,100070.78
2023-04-02T22:48:59.177Z,100067.66
2023-04-02T22:51:28.198Z,100071.00
2023-04-02T22:53:55.805Z,100076.91
2023-04-02T22:56:28.775Z,100065.94
2023-04-02T22:58:55.938Z,100077.38
2023-04-02T23:01:28.532Z,100073.41
2023-04-02T23:03:57.194Z,100077.44
2023-04-02T23:06:25.183Z,100076.63
2023-04-02T23:08:52.967Z,100081.47
2023-04-02T23:11:23.273Z,100077.53
2023-04-02T23:13:51.870Z,100077.44
2023-04-02T23:16:20.057Z,100084.91
2023-04-02T23:18:48.349Z,100084.91
2023-04-02T23:21:17.404Z,100074.53
2023-04-02T23:23:44.668Z,100080.81
2023-04-02T23:26:14.197Z,100081.19
2023-04-02T23:28:41.489Z,100082.38
2023-04-02T23:31:13.914Z,100083.00
2023-04-02T23:33:41.905Z,100091.09
2023-04-02T23:36:24.976Z,100084.53
2023-04-02T23:38:55.591Z,100082.84
2023-04-02T23:41:27.207Z,100093.31
2023-04-02T23:43:58.320Z,100095.53
2023-04-02T23:46:25.730Z,100093.31
2023-04-02T23:48:54.514Z,100102.97
2023-04-02T23:51:22.279Z,100105.16
2023-04-02T23:53:50.923Z,100101.38
2023-04-02T23:56:19.799Z,100106.38
2023-04-02T23:58:46.731Z,100101.63
